sensor_id;sensor_type;location;lat;lon;timestamp;P1;durP1;ratioP1;P2;durP2;ratioP2
54157;SDS011;40065;49.894;10.358;2023-11-19T00:00:57;10.65;;;6.63;;
54157;SDS011;40065;49.894;10.358;2023-11-19T00:05:59;8.63;;;5.88;;
54157;SDS011;40065;49.894;10.358;2023-11-19T00:11:01;9.60;;;6.05;;
54157;SDS011;40065;49.894;10.358;2023-11-19T00:16:04;7.88;;;5.43;;
54157;SDS011;40065;49.894;10.358;2023-11-19T00:21:07;7.72;;;5.40;;
54157;SDS011;40065;49.894;10.358;2023-11-19T00:26:12;9.48;;;5.38;;
54157;SDS011;40065;49.894;10.358;2023-11-19T00:31:18;7.38;;;5.38;;
54157;SDS011;40065;49.894;10.358;2023-11-19T00:36:20;7.90;;;5.60;;
54157;SDS011;40065;49.894;10.358;2023-11-19T00:41:22;8.32;;;5.55;;
54157;SDS011;40065;49.894;10.358;2023-11-19T00:46:24;9.18;;;5.47;;
54157;SDS011;40065;49.894;10.358;2023-11-19T00:51:25;8.30;;;5.63;;
54157;SDS011;40065;49.894;10.358;2023-11-19T00:56:27;11.20;;;6.20;;
54157;SDS011;40065;49.894;10.358;2023-11-19T01:01:29;9.20;;;6.18;;
54157;SDS011;40065;49.894;10.358;2023-11-19T01:06:31;10.07;;;6.13;;
54157;SDS011;40065;49.894;10.358;2023-11-19T01:11:33;10.45;;;6.40;;
54157;SDS011;40065;49.894;10.358;2023-11-19T01:16:36;10.50;;;6.10;;
54157;SDS011;40065;49.894;10.358;2023-11-19T01:21:38;12.10;;;5.80;;
54157;SDS011;40065;49.894;10.358;2023-11-19T01:26:40;10.00;;;6.00;;
54157;SDS011;40065;49.894;10.358;2023-11-19T01:31:46;10.02;;;6.60;;
54157;SDS011;40065;49.894;10.358;2023-11-19T01:36:48;10.43;;;6.55;;
54157;SDS011;40065;49.894;10.358;2023-11-19T01:41:50;11.60;;;6.68;;
54157;SDS011;40065;49.894;10.358;2023-11-19T01:46:53;9.95;;;6.22;;
54157;SDS011;40065;49.894;10.358;2023-11-19T01:51:55;12.65;;;6.70;;
54157;SDS011;40065;49.894;10.358;2023-11-19T01:56:59;11.65;;;6.68;;
54157;SDS011;40065;49.894;10.358;2023-11-19T02:02:02;11.50;;;6.75;;
54157;SDS011;40065;49.894;10.358;2023-11-19T02:07:04;13.15;;;7.60;;
54157;SDS011;40065;49.894;10.358;2023-11-19T02:12:06;12.25;;;7.47;;
54157;SDS011;40065;49.894;10.358;2023-11-19T02:17:24;13.15;;;7.70;;
54157;SDS011;40065;49.894;10.358;2023-11-19T02:22:27;12.70;;;6.97;;
54157;SDS011;40065;49.894;10.358;2023-11-19T02:33:00;13.32;;;7.72;;
54157;SDS011;40065;49.894;10.358;2023-11-19T02:38:07;13.73;;;7.68;;
54157;SDS011;40065;49.894;10.358;2023-11-19T02:43:09;13.95;;;7.47;;
54157;SDS011;40065;49.894;10.358;2023-11-19T02:48:11;14.20;;;7.90;;
54157;SDS011;40065;49.894;10.358;2023-11-19T02:53:13;14.75;;;6.45;;
54157;SDS011;40065;49.894;10.358;2023-11-19T02:58:16;16.77;;;7.53;;
54157;SDS011;40065;49.894;10.358;2023-11-19T03:03:29;13.27;;;6.47;;
54157;SDS011;40065;49.894;10.358;2023-11-19T03:08:39;11.43;;;6.25;;
54157;SDS011;40065;49.894;10.358;2023-11-19T03:13:41;10.82;;;5.90;;
54157;SDS011;40065;49.894;10.358;2023-11-19T03:18:43;10.43;;;6.28;;
54157;SDS011;40065;49.894;10.358;2023-11-19T03:23:45;11.55;;;6.43;;
54157;SDS011;40065;49.894;10.358;2023-11-19T03:28:47;11.23;;;6.07;;
54157;SDS011;40065;49.894;10.358;2023-11-19T03:33:49;14.27;;;6.50;;
54157;SDS011;40065;49.894;10.358;2023-11-19T03:38:50;14.70;;;7.28;;
54157;SDS011;40065;49.894;10.358;2023-11-19T03:43:53;16.02;;;8.77;;
54157;SDS011;40065;49.894;10.358;2023-11-19T03:48:55;19.02;;;8.90;;
54157;SDS011;40065;49.894;10.358;2023-11-19T03:53:57;16.55;;;8.70;;
54157;SDS011;40065;49.894;10.358;2023-11-19T03:59:00;14.50;;;7.82;;
54157;SDS011;40065;49.894;10.358;2023-11-19T04:04:02;16.35;;;8.02;;
54157;SDS011;40065;49.894;10.358;2023-11-19T04:09:04;13.40;;;7.07;;
54157;SDS011;40065;49.894;10.358;2023-11-19T04:14:07;13.00;;;7.00;;
54157;SDS011;40065;49.894;10.358;2023-11-19T04:19:09;10.63;;;5.82;;
54157;SDS011;40065;49.894;10.358;2023-11-19T04:24:11;10.30;;;5.80;;
54157;SDS011;40065;49.894;10.358;2023-11-19T04:29:15;9.73;;;6.25;;
54157;SDS011;40065;49.894;10.358;2023-11-19T04:34:20;8.80;;;5.63;;
54157;SDS011;40065;49.894;10.358;2023-11-19T04:39:22;11.13;;;6.07;;
54157;SDS011;40065;49.894;10.358;2023-11-19T04:44:24;8.80;;;5.60;;
54157;SDS011;40065;49.894;10.358;2023-11-19T04:49:26;8.80;;;5.85;;
54157;SDS011;40065;49.894;10.358;2023-11-19T04:54:29;7.72;;;5.25;;
54157;SDS011;40065;49.894;10.358;2023-11-19T04:59:30;8.05;;;5.00;;
54157;SDS011;40065;49.894;10.358;2023-11-19T05:04:32;7.60;;;4.90;;
54157;SDS011;40065;49.894;10.358;2023-11-19T05:09:34;7.28;;;4.70;;
54157;SDS011;40065;49.894;10.358;2023-11-19T05:14:36;5.82;;;3.92;;
54157;SDS011;40065;49.894;10.358;2023-11-19T05:19:38;7.28;;;3.85;;
54157;SDS011;40065;49.894;10.358;2023-11-19T05:24:40;6.22;;;4.05;;
54157;SDS011;40065;49.894;10.358;2023-11-19T05:29:42;8.10;;;4.55;;
54157;SDS011;40065;49.894;10.358;2023-11-19T05:34:45;9.98;;;5.35;;
54157;SDS011;40065;49.894;10.358;2023-11-19T05:39:49;9.10;;;5.47;;
54157;SDS011;40065;49.894;10.358;2023-11-19T05:44:51;11.57;;;6.30;;
54157;SDS011;40065;49.894;10.358;2023-11-19T05:49:53;13.35;;;6.90;;
54157;SDS011;40065;49.894;10.358;2023-11-19T05:54:55;12.30;;;7.05;;
54157;SDS011;40065;49.894;10.358;2023-11-19T05:59:56;11.73;;;7.13;;
54157;SDS011;40065;49.894;10.358;2023-11-19T06:05:00;12.03;;;6.77;;
54157;SDS011;40065;49.894;10.358;2023-11-19T06:10:02;11.18;;;6.32;;
54157;SDS011;40065;49.894;10.358;2023-11-19T06:15:07;9.52;;;6.07;;
54157;SDS011;40065;49.894;10.358;2023-11-19T06:20:13;9.40;;;5.78;;
54157;SDS011;40065;49.894;10.358;2023-11-19T06:25:15;8.13;;;4.78;;
54157;SDS011;40065;49.894;10.358;2023-11-19T06:30:17;6.63;;;4.65;;
54157;SDS011;40065;49.894;10.358;2023-11-19T06:35:20;5.90;;;4.13;;
54157;SDS011;40065;49.894;10.358;2023-11-19T06:40:22;5.65;;;4.25;;
54157;SDS011;40065;49.894;10.358;2023-11-19T06:45:24;5.55;;;3.85;;
54157;SDS011;40065;49.894;10.358;2023-11-19T06:50:26;6.05;;;4.10;;
54157;SDS011;40065;49.894;10.358;2023-11-19T06:55:27;4.80;;;3.67;;
54157;SDS011;40065;49.894;10.358;2023-11-19T07:00:29;5.95;;;4.63;;
54157;SDS011;40065;49.894;10.358;2023-11-19T07:05:35;6.38;;;4.55;;
54157;SDS011;40065;49.894;10.358;2023-11-19T07:10:39;6.63;;;4.90;;
54157;SDS011;40065;49.894;10.358;2023-11-19T07:15:41;6.25;;;4.82;;
54157;SDS011;40065;49.894;10.358;2023-11-19T07:20:43;6.43;;;5.07;;
54157;SDS011;40065;49.894;10.358;2023-11-19T07:25:47;7.23;;;4.83;;
54157;SDS011;40065;49.894;10.358;2023-11-19T07:30:51;6.50;;;4.90;;
54157;SDS011;40065;49.894;10.358;2023-11-19T07:35:53;6.38;;;4.90;;
54157;SDS011;40065;49.894;10.358;2023-11-19T07:40:55;6.32;;;4.90;;
54157;SDS011;40065;49.894;10.358;2023-11-19T07:45:58;6.88;;;5.00;;
54157;SDS011;40065;49.894;10.358;2023-11-19T07:51:00;6.95;;;4.90;;
54157;SDS011;40065;49.894;10.358;2023-11-19T07:56:02;5.78;;;4.43;;
54157;SDS011;40065;49.894;10.358;2023-11-19T08:01:04;5.53;;;3.90;;
54157;SDS011;40065;49.894;10.358;2023-11-19T08:06:06;4.38;;;3.58;;
54157;SDS011;40065;49.894;10.358;2023-11-19T08:11:09;4.10;;;3.20;;
54157;SDS011;40065;49.894;10.358;2023-11-19T08:16:10;3.42;;;2.42;;
54157;SDS011;40065;49.894;10.358;2023-11-19T08:21:12;2.35;;;1.90;;
54157;SDS011;40065;49.894;10.358;2023-11-19T08:26:15;3.42;;;2.20;;
54157;SDS011;40065;49.894;10.358;2023-11-19T08:31:21;3.30;;;1.98;;
54157;SDS011;40065;49.894;10.358;2023-11-19T08:36:23;2.50;;;1.55;;
54157;SDS011;40065;49.894;10.358;2023-11-19T08:41:25;3.28;;;2.03;;
54157;SDS011;40065;49.894;10.358;2023-11-19T08:46:27;2.08;;;1.63;;
54157;SDS011;40065;49.894;10.358;2023-11-19T08:51:28;2.40;;;1.67;;
54157;SDS011;40065;49.894;10.358;2023-11-19T08:56:30;2.60;;;1.80;;
54157;SDS011;40065;49.894;10.358;2023-11-19T09:01:34;3.97;;;1.60;;
54157;SDS011;40065;49.894;10.358;2023-11-19T09:06:36;0.88;;;0.77;;
54157;SDS011;40065;49.894;10.358;2023-11-19T09:11:38;0.90;;;0.65;;
54157;SDS011;40065;49.894;10.358;2023-11-19T09:16:40;1.33;;;0.70;;
54157;SDS011;40065;49.894;10.358;2023-11-19T09:21:41;1.08;;;0.77;;
54157;SDS011;40065;49.894;10.358;2023-11-19T09:26:43;4.10;;;1.00;;
54157;SDS011;40065;49.894;10.358;2023-11-19T09:31:45;1.75;;;0.93;;
54157;SDS011;40065;49.894;10.358;2023-11-19T09:36:47;2.60;;;1.10;;
54157;SDS011;40065;49.894;10.358;2023-11-19T09:41:49;3.17;;;2.20;;
54157;SDS011;40065;49.894;10.358;2023-11-19T09:46:51;4.47;;;2.67;;
54157;SDS011;40065;49.894;10.358;2023-11-19T09:51:54;5.35;;;2.33;;
54157;SDS011;40065;49.894;10.358;2023-11-19T09:56:56;4.00;;;2.22;;
54157;SDS011;40065;49.894;10.358;2023-11-19T10:02:04;4.03;;;2.63;;
54157;SDS011;40065;49.894;10.358;2023-11-19T10:07:10;4.45;;;2.95;;
54157;SDS011;40065;49.894;10.358;2023-11-19T10:12:12;4.40;;;2.17;;
54157;SDS011;40065;49.894;10.358;2023-11-19T10:17:13;7.43;;;2.90;;
54157;SDS011;40065;49.894;10.358;2023-11-19T10:22:15;2.78;;;1.52;;
54157;SDS011;40065;49.894;10.358;2023-11-19T10:27:19;5.88;;;2.28;;
54157;SDS011;40065;49.894;10.358;2023-11-19T10:32:21;5.05;;;1.63;;
54157;SDS011;40065;49.894;10.358;2023-11-19T10:37:28;3.60;;;1.20;;
54157;SDS011;40065;49.894;10.358;2023-11-19T10:42:34;3.72;;;1.40;;
54157;SDS011;40065;49.894;10.358;2023-11-19T10:47:37;2.33;;;1.20;;
54157;SDS011;40065;49.894;10.358;2023-11-19T10:52:44;5.63;;;1.40;;
54157;SDS011;40065;49.894;10.358;2023-11-19T10:57:48;3.63;;;1.35;;
54157;SDS011;40065;49.894;10.358;2023-11-19T11:02:52;8.10;;;1.40;;
54157;SDS011;40065;49.894;10.358;2023-11-19T11:07:57;4.95;;;1.45;;
54157;SDS011;40065;49.894;10.358;2023-11-19T11:13:03;3.88;;;1.13;;
54157;SDS011;40065;49.894;10.358;2023-11-19T11:18:05;5.57;;;1.05;;
54157;SDS011;40065;49.894;10.358;2023-11-19T11:28:51;3.92;;;0.85;;
54157;SDS011;40065;49.894;10.358;2023-11-19T11:39:15;5.28;;;2.78;;
54157;SDS011;40065;49.894;10.358;2023-11-19T11:44:18;6.43;;;4.03;;
54157;SDS011;40065;49.894;10.358;2023-11-19T11:50:04;5.05;;;1.30;;
54157;SDS011;40065;49.894;10.358;2023-11-19T11:55:11;7.30;;;1.67;;
54157;SDS011;40065;49.894;10.358;2023-11-19T12:00:12;4.72;;;1.60;;
54157;SDS011;40065;49.894;10.358;2023-11-19T12:05:23;4.43;;;1.30;;
54157;SDS011;40065;49.894;10.358;2023-11-19T12:10:25;6.32;;;1.50;;
54157;SDS011;40065;49.894;10.358;2023-11-19T12:20:31;8.00;;;2.42;;
54157;SDS011;40065;49.894;10.358;2023-11-19T12:25:37;4.90;;;1.75;;
54157;SDS011;40065;49.894;10.358;2023-11-19T12:30:39;4.65;;;1.75;;
54157;SDS011;40065;49.894;10.358;2023-11-19T12:35:42;12.90;;;11.60;;
54157;SDS011;40065;49.894;10.358;2023-11-19T12:41:04;7.95;;;6.13;;
54157;SDS011;40065;49.894;10.358;2023-11-19T12:46:19;8.48;;;5.18;;
54157;SDS011;40065;49.894;10.358;2023-11-19T12:51:22;7.03;;;3.40;;
54157;SDS011;40065;49.894;10.358;2023-11-19T12:56:31;6.28;;;2.63;;
54157;SDS011;40065;49.894;10.358;2023-11-19T13:01:33;8.15;;;3.10;;
54157;SDS011;40065;49.894;10.358;2023-11-19T13:06:37;4.70;;;2.00;;
54157;SDS011;40065;49.894;10.358;2023-11-19T13:12:14;6.35;;;1.73;;
54157;SDS011;40065;49.894;10.358;2023-11-19T13:17:17;5.35;;;1.40;;
54157;SDS011;40065;49.894;10.358;2023-11-19T13:22:19;5.43;;;1.77;;
54157;SDS011;40065;49.894;10.358;2023-11-19T13:27:21;4.40;;;2.10;;
54157;SDS011;40065;49.894;10.358;2023-11-19T13:32:22;6.80;;;2.80;;
54157;SDS011;40065;49.894;10.358;2023-11-19T13:37:24;3.30;;;1.10;;
54157;SDS011;40065;49.894;10.358;2023-11-19T13:42:26;5.95;;;2.70;;
54157;SDS011;40065;49.894;10.358;2023-11-19T13:47:28;4.57;;;1.75;;
54157;SDS011;40065;49.894;10.358;2023-11-19T13:52:30;4.22;;;1.52;;
54157;SDS011;40065;49.894;10.358;2023-11-19T13:57:32;5.07;;;1.27;;
54157;SDS011;40065;49.894;10.358;2023-11-19T14:02:33;6.38;;;1.33;;
54157;SDS011;40065;49.894;10.358;2023-11-19T14:07:35;6.88;;;1.85;;
54157;SDS011;40065;49.894;10.358;2023-11-19T14:12:39;10.90;;;7.33;;
54157;SDS011;40065;49.894;10.358;2023-11-19T14:17:41;3.72;;;1.20;;
54157;SDS011;40065;49.894;10.358;2023-11-19T14:22:43;5.80;;;1.55;;
54157;SDS011;40065;49.894;10.358;2023-11-19T14:27:46;3.45;;;0.90;;
54157;SDS011;40065;49.894;10.358;2023-11-19T14:32:48;4.88;;;1.10;;
54157;SDS011;40065;49.894;10.358;2023-11-19T14:37:51;3.08;;;1.30;;
54157;SDS011;40065;49.894;10.358;2023-11-19T14:42:52;4.43;;;1.13;;
54157;SDS011;40065;49.894;10.358;2023-11-19T14:47:55;5.57;;;1.40;;
54157;SDS011;40065;49.894;10.358;2023-11-19T14:52:56;5.15;;;1.25;;
54157;SDS011;40065;49.894;10.358;2023-11-19T14:57:59;6.18;;;1.30;;
54157;SDS011;40065;49.894;10.358;2023-11-19T15:03:10;4.65;;;0.90;;
54157;SDS011;40065;49.894;10.358;2023-11-19T15:08:13;4.20;;;1.65;;
54157;SDS011;40065;49.894;10.358;2023-11-19T15:13:18;3.85;;;1.00;;
54157;SDS011;40065;49.894;10.358;2023-11-19T15:18:20;5.78;;;1.27;;
54157;SDS011;40065;49.894;10.358;2023-11-19T15:23:22;7.78;;;1.52;;
54157;SDS011;40065;49.894;10.358;2023-11-19T15:28:24;4.82;;;1.20;;
54157;SDS011;40065;49.894;10.358;2023-11-19T15:33:25;5.82;;;1.27;;
54157;SDS011;40065;49.894;10.358;2023-11-19T15:38:27;3.85;;;0.98;;
54157;SDS011;40065;49.894;10.358;2023-11-19T15:43:29;4.90;;;1.30;;
54157;SDS011;40065;49.894;10.358;2023-11-19T15:48:31;9.20;;;1.67;;
54157;SDS011;40065;49.894;10.358;2023-11-19T15:53:32;6.80;;;1.02;;
54157;SDS011;40065;49.894;10.358;2023-11-19T15:58:34;3.78;;;1.15;;
54157;SDS011;40065;49.894;10.358;2023-11-19T16:03:37;5.75;;;1.30;;
54157;SDS011;40065;49.894;10.358;2023-11-19T16:08:43;6.03;;;1.80;;
54157;SDS011;40065;49.894;10.358;2023-11-19T16:13:45;5.95;;;2.15;;
54157;SDS011;40065;49.894;10.358;2023-11-19T16:18:48;7.43;;;2.17;;
54157;SDS011;40065;49.894;10.358;2023-11-19T16:23:50;11.05;;;3.40;;
54157;SDS011;40065;49.894;10.358;2023-11-19T16:28:52;7.28;;;1.75;;
54157;SDS011;40065;49.894;10.358;2023-11-19T16:33:54;3.63;;;1.00;;
54157;SDS011;40065;49.894;10.358;2023-11-19T16:38:56;5.05;;;1.25;;
54157;SDS011;40065;49.894;10.358;2023-11-19T16:44:16;7.10;;;3.00;;
54157;SDS011;40065;49.894;10.358;2023-11-19T16:49:18;7.45;;;3.00;;
54157;SDS011;40065;49.894;10.358;2023-11-19T16:54:20;9.07;;;2.83;;
54157;SDS011;40065;49.894;10.358;2023-11-19T16:59:23;7.97;;;2.35;;
54157;SDS011;40065;49.894;10.358;2023-11-19T17:04:24;21.95;;;11.70;;
54157;SDS011;40065;49.894;10.358;2023-11-19T17:09:28;13.75;;;6.20;;
54157;SDS011;40065;49.894;10.358;2023-11-19T17:14:30;19.63;;;11.52;;
54157;SDS011;40065;49.894;10.358;2023-11-19T17:19:35;5.13;;;2.80;;
54157;SDS011;40065;49.894;10.358;2023-11-19T17:24:37;5.85;;;2.00;;
54157;SDS011;40065;49.894;10.358;2023-11-19T17:29:40;6.17;;;1.70;;
54157;SDS011;40065;49.894;10.358;2023-11-19T17:34:42;6.60;;;1.40;;
54157;SDS011;40065;49.894;10.358;2023-11-19T17:39:44;8.20;;;1.80;;
54157;SDS011;40065;49.894;10.358;2023-11-19T17:44:47;4.85;;;1.50;;
54157;SDS011;40065;49.894;10.358;2023-11-19T17:49:49;7.05;;;1.58;;
54157;SDS011;40065;49.894;10.358;2023-11-19T17:54:50;5.15;;;1.40;;
54157;SDS011;40065;49.894;10.358;2023-11-19T17:59:52;6.20;;;2.05;;
54157;SDS011;40065;49.894;10.358;2023-11-19T18:04:54;5.68;;;2.33;;
54157;SDS011;40065;49.894;10.358;2023-11-19T18:09:58;24.63;;;9.50;;
54157;SDS011;40065;49.894;10.358;2023-11-19T18:15:04;26.13;;;9.68;;
54157;SDS011;40065;49.894;10.358;2023-11-19T18:20:10;36.47;;;12.95;;
54157;SDS011;40065;49.894;10.358;2023-11-19T18:25:13;6.73;;;2.27;;
54157;SDS011;40065;49.894;10.358;2023-11-19T18:30:19;4.97;;;1.35;;
54157;SDS011;40065;49.894;10.358;2023-11-19T18:35:21;4.97;;;1.98;;
54157;SDS011;40065;49.894;10.358;2023-11-19T18:40:26;7.50;;;2.13;;
54157;SDS011;40065;49.894;10.358;2023-11-19T18:45:28;6.97;;;1.52;;
54157;SDS011;40065;49.894;10.358;2023-11-19T18:50:29;9.55;;;1.67;;
54157;SDS011;40065;49.894;10.358;2023-11-19T18:55:51;6.78;;;2.13;;
54157;SDS011;40065;49.894;10.358;2023-11-19T19:00:53;7.57;;;1.80;;
54157;SDS011;40065;49.894;10.358;2023-11-19T19:05:55;8.20;;;2.05;;
54157;SDS011;40065;49.894;10.358;2023-11-19T19:10:57;5.20;;;1.42;;
54157;SDS011;40065;49.894;10.358;2023-11-19T19:15:59;6.82;;;1.48;;
54157;SDS011;40065;49.894;10.358;2023-11-19T19:21:06;3.85;;;1.48;;
54157;SDS011;40065;49.894;10.358;2023-11-19T19:26:08;5.75;;;1.58;;
54157;SDS011;40065;49.894;10.358;2023-11-19T19:31:10;7.15;;;1.67;;
54157;SDS011;40065;49.894;10.358;2023-11-19T19:36:18;8.07;;;1.60;;
54157;SDS011;40065;49.894;10.358;2023-11-19T19:41:20;8.60;;;1.77;;
54157;SDS011;40065;49.894;10.358;2023-11-19T19:46:22;7.30;;;1.65;;
54157;SDS011;40065;49.894;10.358;2023-11-19T19:51:25;5.72;;;1.60;;
54157;SDS011;40065;49.894;10.358;2023-11-19T19:56:27;11.10;;;1.90;;
54157;SDS011;40065;49.894;10.358;2023-11-19T20:01:29;5.07;;;1.75;;
54157;SDS011;40065;49.894;10.358;2023-11-19T20:06:38;6.85;;;1.80;;
54157;SDS011;40065;49.894;10.358;2023-11-19T20:11:40;6.95;;;1.50;;
54157;SDS011;40065;49.894;10.358;2023-11-19T20:16:45;4.65;;;2.05;;
54157;SDS011;40065;49.894;10.358;2023-11-19T20:21:46;6.13;;;1.63;;
54157;SDS011;40065;49.894;10.358;2023-11-19T20:26:48;6.43;;;1.33;;
54157;SDS011;40065;49.894;10.358;2023-11-19T20:31:54;8.57;;;1.80;;
54157;SDS011;40065;49.894;10.358;2023-11-19T20:36:56;7.72;;;1.45;;
54157;SDS011;40065;49.894;10.358;2023-11-19T20:41:59;9.07;;;1.70;;
54157;SDS011;40065;49.894;10.358;2023-11-19T20:47:01;7.80;;;1.55;;
54157;SDS011;40065;49.894;10.358;2023-11-19T20:52:05;9.55;;;1.75;;
54157;SDS011;40065;49.894;10.358;2023-11-19T20:57:07;8.05;;;1.50;;
54157;SDS011;40065;49.894;10.358;2023-11-19T21:02:09;8.73;;;2.17;;
54157;SDS011;40065;49.894;10.358;2023-11-19T21:07:12;10.32;;;1.95;;
54157;SDS011;40065;49.894;10.358;2023-11-19T21:12:14;7.97;;;1.95;;
54157;SDS011;40065;49.894;10.358;2023-11-19T21:17:16;8.50;;;2.00;;
54157;SDS011;40065;49.894;10.358;2023-11-19T21:22:21;8.13;;;1.52;;
54157;SDS011;40065;49.894;10.358;2023-11-19T21:27:23;9.23;;;1.58;;
54157;SDS011;40065;49.894;10.358;2023-11-19T21:32:25;9.32;;;1.83;;
54157;SDS011;40065;49.894;10.358;2023-11-19T21:37:27;8.10;;;1.73;;
54157;SDS011;40065;49.894;10.358;2023-11-19T21:42:29;13.98;;;2.20;;
54157;SDS011;40065;49.894;10.358;2023-11-19T21:47:31;10.75;;;1.90;;
54157;SDS011;40065;49.894;10.358;2023-11-19T21:52:33;5.55;;;1.52;;
54157;SDS011;40065;49.894;10.358;2023-11-19T21:57:36;6.88;;;1.70;;
54157;SDS011;40065;49.894;10.358;2023-11-19T22:02:39;10.15;;;1.88;;
54157;SDS011;40065;49.894;10.358;2023-11-19T22:07:41;6.63;;;1.85;;
54157;SDS011;40065;49.894;10.358;2023-11-19T22:12:45;7.75;;;1.67;;
54157;SDS011;40065;49.894;10.358;2023-11-19T22:17:47;11.48;;;2.03;;
54157;SDS011;40065;49.894;10.358;2023-11-19T22:22:50;12.05;;;1.63;;
54157;SDS011;40065;49.894;10.358;2023-11-19T22:27:52;9.35;;;1.88;;
54157;SDS011;40065;49.894;10.358;2023-11-19T22:32:54;13.70;;;1.80;;
54157;SDS011;40065;49.894;10.358;2023-11-19T22:37:56;9.75;;;1.67;;
54157;SDS011;40065;49.894;10.358;2023-11-19T22:42:58;8.00;;;1.63;;
54157;SDS011;40065;49.894;10.358;2023-11-19T22:48:00;6.75;;;1.85;;
54157;SDS011;40065;49.894;10.358;2023-11-19T22:53:02;7.10;;;1.58;;
54157;SDS011;40065;49.894;10.358;2023-11-19T22:58:04;14.48;;;2.22;;
54157;SDS011;40065;49.894;10.358;2023-11-19T23:03:06;14.75;;;2.08;;
54157;SDS011;40065;49.894;10.358;2023-11-19T23:08:08;9.88;;;1.42;;
54157;SDS011;40065;49.894;10.358;2023-11-19T23:13:12;8.30;;;1.40;;
54157;SDS011;40065;49.894;10.358;2023-11-19T23:18:14;9.02;;;1.75;;
54157;SDS011;40065;49.894;10.358;2023-11-19T23:23:16;10.75;;;1.83;;
54157;SDS011;40065;49.894;10.358;2023-11-19T23:28:18;7.88;;;1.70;;
54157;SDS011;40065;49.894;10.358;2023-11-19T23:33:20;12.82;;;2.10;;
54157;SDS011;40065;49.894;10.358;2023-11-19T23:38:22;10.95;;;1.55;;
54157;SDS011;40065;49.894;10.358;2023-11-19T23:43:24;10.98;;;1.85;;
54157;SDS011;40065;49.894;10.358;2023-11-19T23:48:25;9.52;;;1.60;;
54157;SDS011;40065;49.894;10.358;2023-11-19T23:53:27;16.70;;;2.22;;
54157;SDS011;40065;49.894;10.358;2023-11-19T23:58:29;11.55;;;1.88;;
